Time;durP1;ratioP1;P1;durP2;ratioP2;P2;SDS_P1;SDS_P2;PMS_P1;PMS_P2;Temp;Humidity;BMP_temperature;BMP_pressure;BME280_temperature;BME280_humidity;BME280_pressure;Samples;Min_cycle;Max_cycle;Signal;HPM_P1;HPM_P2
2022/03/14 00:00:47;;;;;;;2.60;1.60;;;;;;;10.65;65.27;101474.47;5263692;28;20170;-74
2022/03/14 00:03:20;;;;;;;2.33;1.80;;;;;;;10.65;65.32;101473.63;5263192;28;20024;-74
2022/03/14 00:05:52;;;;;;;;;;;;;;;10.69;64.90;101472.72;5264141;28;20021;-73
2022/03/14 00:08:25;;;;;;;2.13;1.80;;;;;;;10.61;65.51;101466.66;5263432;28;19913;-75
2022/03/14 00:10:57;;;;;;;3.67;2.13;;;;;;;10.58;65.68;101480.59;5263638;28;20444;-74
2022/03/14 00:13:28;;;;;;;1.83;1.67;;;;;;;10.55;66.13;101481.44;5263434;28;20047;-75
2022/03/14 00:15:59;;;;;;;2.70;2.20;;;;;;;10.53;66.02;101483.19;5263409;28;20369;-76
2022/03/14 00:18:34;;;;;;;2.10;1.73;;;;;;;10.53;66.14;101485.81;5263017;28;20036;-77
2022/03/14 00:21:06;;;;;;;3.95;2.10;;;;;;;10.54;66.31;101494.47;5263367;28;20508;-74
2022/03/14 00:23:38;;;;;;;4.40;2.17;;;;;;;10.49;66.28;101489.25;5263268;28;20021;-75
2022/03/14 00:26:09;;;;;;;3.30;2.20;;;;;;;10.50;66.12;101501.44;5263307;28;20017;-74
2022/03/14 00:28:41;;;;;;;4.30;2.10;;;;;;;10.49;66.74;101498.84;5262954;28;20043;-74
2022/03/14 00:31:12;;;;;;;3.53;1.90;;;;;;;10.50;66.45;101506.66;5263214;28;20461;-76
2022/03/14 00:33:43;;;;;;;3.30;1.90;;;;;;;10.46;66.64;101510.13;5262846;28;20082;-74
2022/03/14 00:36:15;;;;;;;2.53;2.00;;;;;;;10.45;66.57;101508.41;5263155;28;20028;-74
2022/03/14 00:38:46;;;;;;;2.40;1.97;;;;;;;10.46;66.55;101515.34;5262989;28;20032;-76
2022/03/14 00:41:18;;;;;;;3.10;1.90;;;;;;;10.43;66.67;101512.72;5262907;28;20032;-76
2022/03/14 00:43:49;;;;;;;3.30;2.33;;;;;;;10.45;66.89;101521.44;5262956;28;20021;-76
2022/03/14 00:46:21;;;;;;;3.00;2.00;;;;;;;10.41;67.04;101522.28;5262773;28;20376;-76
2022/03/14 00:48:52;;;;;;;2.37;1.90;;;;;;;10.43;66.70;101524.91;5262365;28;20071;-74
2022/03/14 00:51:23;;;;;;;2.67;2.07;;;;;;;10.39;66.75;101522.28;5262732;28;20025;-74
2022/03/14 00:53:55;;;;;;;2.70;1.90;;;;;;;10.38;67.44;101531.00;5262449;28;20104;-76
2022/03/14 00:56:27;;;;;;;3.27;2.30;;;;;;;10.39;68.04;101539.69;5262622;28;20031;-76
2022/03/14 00:59:01;;;;;;;2.30;2.10;;;;;;;10.36;68.16;101531.84;5262753;28;20455;-78
2022/03/14 01:01:32;;;;;;;4.18;2.60;;;;;;;10.26;69.66;101543.13;5264072;28;20021;-74
2022/03/14 01:04:04;;;;;;;3.63;2.67;;;;;;;10.11;70.48;101542.25;5264277;28;20024;-74
2022/03/14 01:06:36;;;;;;;3.50;2.60;;;;;;;10.07;71.02;101545.69;5265065;28;20035;-74
2022/03/14 01:09:11;;;;;;;4.10;2.70;;;;;;;10.05;71.19;101550.03;5264151;28;20133;-77
2022/03/14 01:11:42;;;;;;;4.32;2.58;;;;;;;10.06;71.14;101549.16;5263495;28;20087;-74
2022/03/14 01:14:14;;;;;;;3.47;2.47;;;;;;;10.04;70.99;101550.91;5263652;28;20032;-75
2022/03/14 01:16:45;;;;;;;4.00;2.50;;;;;;;10.07;71.05;101553.50;5262476;28;20492;-74
2022/03/14 01:19:17;;;;;;;3.77;2.50;;;;;;;10.02;71.05;101555.25;5262511;28;20025;-76
2022/03/14 01:21:49;;;;;;;4.53;2.83;;;;;;;10.05;71.12;101557.84;5262650;28;20048;-73
2022/03/14 01:24:20;;;;;;;5.40;2.37;;;;;;;10.01;71.58;101554.38;5262373;28;20108;-75
2022/03/14 01:26:52;;;;;;;3.83;2.47;;;;;;;10.00;71.71;101568.25;5262527;28;20063;-74
2022/03/14 01:29:23;;;;;;;3.67;2.43;;;;;;;10.00;71.76;101565.66;5261964;28;20025;-74
2022/03/14 01:31:54;;;;;;;3.47;2.80;;;;;;;9.96;72.10;101578.66;5262153;28;20461;-74
2022/03/14 01:34:26;;;;;;;3.90;2.40;;;;;;;9.99;71.65;101574.31;5261711;28;20048;-73
2022/03/14 01:36:57;;;;;;;4.30;2.90;;;;;;;9.99;71.62;101583.88;5261855;28;20029;-74
2022/03/14 01:39:29;;;;;;;4.00;2.77;;;;;;;9.97;71.89;101580.41;5262010;28;20392;-77
2022/03/14 01:42:02;;;;;;;3.77;2.60;;;;;;;9.95;71.81;101580.41;5261745;28;20112;-75
2022/03/14 01:44:33;;;;;;;3.60;2.60;;;;;;;9.94;72.11;101581.25;5261596;28;20083;-77
2022/03/14 01:47:04;;;;;;;3.73;2.93;;;;;;;9.92;72.26;101577.78;5261832;28;20480;-74
2022/03/14 01:49:36;;;;;;;3.20;2.77;;;;;;;9.89;72.06;101569.97;5261593;28;20025;-74
2022/03/14 01:52:08;;;;;;;4.07;3.17;;;;;;;9.90;72.26;101576.94;5261234;28;20028;-72
2022/03/14 01:54:41;;;;;;;3.58;2.53;;;;;;;9.95;72.16;101585.63;5261448;28;20109;-75
2022/03/14 01:57:13;;;;;;;3.25;2.63;;;;;;;9.95;72.03;101585.63;5261670;28;20388;-73
2022/03/14 01:59:44;;;;;;;4.75;3.22;;;;;;;9.94;72.29;101596.03;5261520;28;20017;-75
2022/03/14 02:02:16;;;;;;;3.70;2.80;;;;;;;9.94;72.15;101598.63;5261349;28;20032;-74
2022/03/14 02:04:47;;;;;;;5.20;2.80;;;;;;;9.95;72.37;101589.94;5261497;28;20021;-75
2022/03/14 02:07:20;;;;;;;3.47;2.77;;;;;;;9.92;72.43;101600.34;5261191;28;20036;-75
2022/03/14 02:09:51;;;;;;;4.50;3.30;;;;;;;9.91;72.45;101593.41;5261412;28;20522;-74
2022/03/14 02:12:23;;;;;;;3.53;2.80;;;;;;;9.92;72.36;101598.63;5261652;28;20028;-76
2022/03/14 02:14:54;;;;;;;5.23;2.90;;;;;;;9.89;73.33;101602.97;5261810;28;20033;-74
2022/03/14 02:17:25;;;;;;;4.40;3.10;;;;;;;9.87;73.69;101613.38;5261365;28;20427;-75
2022/03/14 02:19:58;;;;;;;3.50;2.83;;;;;;;9.92;73.05;101618.56;5261222;28;20456;-74
2022/03/14 02:22:30;;;;;;;3.95;3.40;;;;;;;9.86;73.33;101620.28;5260768;28;20476;-74
2022/03/14 02:25:02;;;;;;;6.40;3.40;;;;;;;9.84;73.49;101621.19;5261414;28;20057;-74
2022/03/14 02:27:34;;;;;;;4.33;3.27;;;;;;;9.80;73.77;101628.09;5259511;28;20033;-74
2022/03/14 02:30:06;;;;;;;3.83;2.97;;;;;;;9.80;73.43;101627.22;5261346;28;20494;-73
2022/03/14 02:32:41;;;;;;;5.35;3.05;;;;;;;9.80;73.27;101622.88;5260942;28;20121;-74
2022/03/14 02:35:13;;;;;;;4.85;3.38;;;;;;;9.74;73.79;101628.09;5260282;28;20082;-74
2022/03/14 02:37:44;;;;;;;5.22;3.90;;;;;;;9.70;74.13;101626.31;5261003;28;20021;-75
2022/03/14 02:40:16;;;;;;;6.03;3.70;;;;;;;9.71;74.14;101617.66;5261427;28;20495;-73
2022/03/14 02:42:47;;;;;;;3.87;3.00;;;;;;;9.70;74.29;101626.31;5261189;28;20124;-74
2022/03/14 02:45:19;;;;;;;4.07;3.10;;;;;;;9.68;74.22;101631.50;5261204;28;20029;-76
2022/03/14 02:47:50;;;;;;;4.50;3.60;;;;;;;9.64;74.40;101631.50;5261001;28;20017;-76
2022/03/14 02:50:21;;;;;;;4.27;3.37;;;;;;;9.63;74.50;101629.78;5261134;28;20452;-77
2022/03/14 02:52:53;;;;;;;4.50;3.37;;;;;;;9.64;74.38;101631.50;5260922;28;20045;-76
2022/03/14 02:55:25;;;;;;;4.47;3.00;;;;;;;9.57;74.84;101641.00;5260934;28;20025;-74
2022/03/14 02:57:58;;;;;;;3.90;3.10;;;;;;;9.57;74.96;101655.75;5261076;28;20032;-74
2022/03/14 03:00:30;;;;;;;5.65;3.53;;;;;;;9.53;74.98;101665.28;5260966;28;20111;-74
2022/03/14 03:03:06;;;;;;;4.40;3.30;;;;;;;9.53;74.89;101673.09;5261018;28;20108;-74
2022/03/14 03:05:43;;;;;;;4.43;3.13;;;;;;;9.49;75.19;101671.34;5261019;28;20029;-73
2022/03/14 03:08:14;;;;;;;4.47;3.35;;;;;;;9.51;74.84;101671.34;5260412;28;20023;-75
2022/03/14 03:10:47;;;;;;;4.53;2.90;;;;;;;9.48;74.90;101683.47;5261263;28;20107;-74
2022/03/14 03:13:19;;;;;;;3.67;2.90;;;;;;;9.47;74.51;101684.34;5260953;28;20107;-75
2022/03/14 03:15:51;;;;;;;4.88;2.95;;;;;;;9.41;74.99;101686.91;5263164;28;20017;-74
2022/03/14 03:18:24;;;;;;;4.57;3.27;;;;;;;9.36;75.28;101695.53;5264491;28;20555;-75
2022/03/14 03:20:55;;;;;;;5.60;3.38;;;;;;;9.32;75.44;101712.84;5264085;28;20435;-74
2022/03/14 03:23:27;;;;;;;3.60;3.00;;;;;;;9.30;75.79;101710.22;5264024;28;20119;-74
2022/03/14 03:25:58;;;;;;;3.77;3.13;;;;;;;9.15;77.58;101720.53;5264209;28;20491;-74
2022/03/14 03:28:35;;;;;;;5.27;3.13;;;;;;;8.99;79.20;101718.66;5264185;28;20025;-75
2022/03/14 03:31:10;;;;;;;4.55;3.55;;;;;;;8.96;79.58;101729.91;5264099;28;20056;-74
2022/03/14 03:33:41;;;;;;;6.03;3.63;;;;;;;8.86;80.82;101736.75;5264070;28;20025;-74
2022/03/14 03:36:12;;;;;;;5.47;3.23;;;;;;;8.70;81.25;101748.72;5264186;28;20017;-77
2022/03/14 03:38:44;;;;;;;4.17;3.53;;;;;;;8.71;81.48;101750.47;5263889;28;20397;-77
2022/03/14 03:41:15;;;;;;;5.37;3.27;;;;;;;8.76;80.69;101754.00;5264039;28;20604;-74
2022/03/14 03:43:46;;;;;;;9.60;4.67;;;;;;;8.78;80.18;101761.81;5263838;28;20029;-75
2022/03/14 03:46:18;;;;;;;4.50;3.80;;;;;;;8.75;80.49;101770.44;5263949;28;20029;-75
2022/03/14 03:48:49;;;;;;;4.97;4.07;;;;;;;8.79;80.58;101767.88;5263930;28;20148;-75
2022/03/14 03:51:21;;;;;;;7.80;4.73;;;;;;;8.81;80.62;101771.38;5263829;28;20029;-75
2022/03/14 03:53:52;;;;;;;6.87;3.80;;;;;;;8.83;80.72;101782.66;5263711;28;20021;-73
2022/03/14 03:56:23;;;;;;;5.30;3.63;;;;;;;8.78;82.00;101786.94;5263580;28;20021;-73
2022/03/14 03:58:55;;;;;;;4.87;3.73;;;;;;;8.72;82.11;101788.59;5263719;28;20380;-76
2022/03/14 04:01:27;;;;;;;5.13;4.20;;;;;;;8.67;82.28;101794.63;5263786;28;20029;-76
2022/03/14 04:04:01;;;;;;;6.50;4.78;;;;;;;8.64;82.46;101795.44;5262247;28;20100;-76
2022/03/14 04:06:35;;;;;;;6.63;4.35;;;;;;;8.60;82.80;101803.19;5262213;28;20104;-74
2022/03/14 04:09:06;;;;;;;5.90;5.05;;;;;;;8.60;83.01;101800.56;5263254;28;20433;-74
2022/03/14 04:11:41;;;;;;;6.43;4.60;;;;;;;8.56;84.04;101808.38;5263181;28;20029;-75
2022/03/14 04:14:13;;;;;;;6.15;5.15;;;;;;;8.56;83.77;101821.38;5263450;28;20119;-73
2022/03/14 04:16:44;;;;;;;7.10;4.90;;;;;;;8.54;84.47;101819.59;5263543;28;20025;-76
2022/03/14 04:19:18;;;;;;;6.13;4.73;;;;;;;8.51;84.68;101822.16;5263256;28;20016;-74
2022/03/14 04:21:52;;;;;;;7.45;4.93;;;;;;;8.45;85.35;101835.91;5263107;28;20045;-74
2022/03/14 04:24:24;;;;;;;5.25;4.50;;;;;;;8.38;85.54;101829.75;5263179;28;20021;-74
2022/03/14 04:26:55;;;;;;;5.50;4.40;;;;;;;8.37;86.11;101830.63;5262818;28;20040;-74
2022/03/14 04:29:28;;;;;;;6.53;5.20;;;;;;;8.38;85.86;101840.13;5262994;28;20025;-75
2022/03/14 04:31:59;;;;;;;5.75;5.10;;;;;;;8.34;86.19;101848.75;5263210;28;20388;-74
2022/03/14 04:34:31;;;;;;;7.83;6.20;;;;;;;8.28;86.52;101840.88;5263101;28;20029;-74
2022/03/14 04:37:03;;;;;;;7.50;5.63;;;;;;;8.25;86.75;101843.44;5262995;28;20430;-73
2022/03/14 04:39:34;;;;;;;7.07;6.37;;;;;;;8.25;87.27;101852.94;5262873;28;20017;-74
2022/03/14 04:42:07;;;;;;;7.17;5.43;;;;;;;8.21;86.85;101855.50;5262701;28;20066;-76
2022/03/14 04:44:38;;;;;;;8.73;5.88;;;;;;;8.15;87.53;101863.19;5262715;28;20075;-74
2022/03/14 04:47:10;;;;;;;7.43;6.53;;;;;;;8.14;87.67;101860.59;5262873;28;20409;-73
2022/03/14 04:49:42;;;;;;;7.55;6.57;;;;;;;8.12;87.51;101854.50;5262682;28;20029;-74
2022/03/14 04:52:14;;;;;;;8.87;6.83;;;;;;;8.10;87.41;101862.28;5262846;28;20519;-73
2022/03/14 04:54:45;;;;;;;10.32;6.78;;;;;;;8.14;87.01;101863.19;5262659;28;20420;-76
2022/03/14 04:57:17;;;;;;;8.53;5.77;;;;;;;8.03;87.44;101874.28;5262228;28;20203;-74
2022/03/14 04:59:48;;;;;;;7.93;6.30;;;;;;;8.05;87.32;101884.72;5262675;28;20048;-77
2022/03/14 05:02:22;;;;;;;8.50;6.43;;;;;;;8.04;87.42;101886.41;5262771;28;20032;-73
2022/03/14 05:04:53;;;;;;;8.07;6.75;;;;;;;7.96;87.94;101894.94;5262393;28;20107;-75
2022/03/14 05:07:25;;;;;;;9.40;6.63;;;;;;;7.99;87.78;101895.84;5262721;28;20563;-75
2022/03/14 05:09:56;;;;;;;8.53;7.23;;;;;;;7.98;87.73;101903.63;5262220;28;20029;-75
2022/03/14 05:12:31;;;;;;;7.67;6.33;;;;;;;8.00;87.45;101910.59;5261900;28;20538;-75
2022/03/14 05:15:03;;;;;;;12.30;6.97;;;;;;;8.02;87.31;101910.63;5262400;28;20024;-77
2022/03/14 05:17:35;;;;;;;10.53;6.90;;;;;;;8.02;87.14;101919.28;5262302;28;20029;-74
2022/03/14 05:20:06;;;;;;;9.30;7.10;;;;;;;8.11;86.48;101925.47;5262368;28;20131;-74
2022/03/14 05:22:45;;;;;;;8.90;7.57;;;;;;;8.02;87.11;101942.66;5261688;28;20049;-74
2022/03/14 05:25:18;;;;;;;12.77;8.35;;;;;;;8.02;87.11;101934.84;5262109;28;20029;-74
2022/03/14 05:27:52;;;;;;;11.07;9.35;;;;;;;8.04;87.17;101930.56;5261977;28;20047;-75
2022/03/14 05:30:24;;;;;;;11.13;8.82;;;;;;;8.02;87.21;101934.84;5261919;28;20104;-75
2022/03/14 05:32:55;;;;;;;10.37;9.23;;;;;;;8.07;86.73;101941.88;5261991;28;20512;-75
2022/03/14 05:35:28;;;;;;;13.63;8.87;;;;;;;8.04;86.82;101948.72;5261880;28;20596;-73
2022/03/14 05:37:59;;;;;;;11.38;8.98;;;;;;;8.06;86.82;101950.50;5261623;28;20096;-74
2022/03/14 05:40:31;;;;;;;13.53;9.97;;;;;;;8.02;87.02;101955.63;5261927;28;20159;-74
2022/03/14 05:43:10;;;;;;;12.17;9.73;;;;;;;8.07;86.65;101970.44;5265598;28;20082;-74
2022/03/14 05:45:42;;;;;;;15.55;11.18;;;;;;;8.06;87.10;101958.28;5282528;28;20467;-75
2022/03/14 05:48:13;;;;;;;14.73;11.48;;;;;;;8.07;86.82;101966.09;5282472;28;20029;-74
2022/03/14 05:50:45;;;;;;;12.20;10.90;;;;;;;8.05;86.83;101970.41;5282424;28;20452;-74
2022/03/14 05:53:16;;;;;;;15.90;10.83;;;;;;;8.04;87.01;101977.28;5282667;28;20130;-74
2022/03/14 05:55:47;;;;;;;15.67;10.83;;;;;;;8.05;87.40;101985.97;5282578;28;20033;-74
2022/03/14 05:58:19;;;;;;;14.27;11.27;;;;;;;8.04;86.89;101979.88;5282287;28;20042;-74
2022/03/14 06:00:52;;;;;;;16.67;10.70;;;;;;;8.07;86.95;101993.81;5282613;28;20036;-74
2022/03/14 06:03:23;;;;;;;14.15;11.43;;;;;;;8.10;86.80;101992.13;5282523;28;20024;-73
2022/03/14 06:05:55;;;;;;;15.87;12.70;;;;;;;8.07;87.04;101999.00;5281187;28;20031;-74
2022/03/14 06:08:26;;;;;;;13.40;10.83;;;;;;;8.07;87.08;101996.41;5282293;28;20025;-75
2022/03/14 06:10:57;;;;;;;13.03;10.83;;;;;;;8.07;87.22;102007.66;5282163;28;20430;-74
2022/03/14 06:13:29;;;;;;;13.77;11.87;;;;;;;8.11;86.83;102009.44;5282263;28;20049;-74
2022/03/14 06:16:00;;;;;;;14.53;11.70;;;;;;;8.13;86.94;102017.25;5281911;28;20028;-76
2022/03/14 06:18:32;;;;;;;15.07;10.80;;;;;;;8.16;86.85;102012.13;5281938;28;20035;-74
2022/03/14 06:21:03;;;;;;;15.43;12.07;;;;;;;8.20;86.58;102021.72;5281901;28;20070;-74
2022/03/14 06:23:36;;;;;;;17.20;13.57;;;;;;;8.20;86.48;102026.91;5281943;28;20028;-74
2022/03/14 06:26:07;;;;;;;14.52;12.07;;;;;;;8.18;86.67;102024.28;5282003;28;20047;-75
2022/03/14 06:28:39;;;;;;;14.00;12.57;;;;;;;8.23;86.58;102032.16;5281932;28;20064;-74
2022/03/14 06:31:11;;;;;;;19.93;13.37;;;;;;;8.22;86.57;102035.59;5281892;28;20016;-75
2022/03/14 06:33:42;;;;;;;16.57;12.83;;;;;;;8.22;86.53;102043.38;5281908;28;20461;-74
2022/03/14 06:36:13;;;;;;;18.73;14.70;;;;;;;8.21;86.46;102045.13;5282102;28;20048;-76
2022/03/14 06:38:45;;;;;;;19.67;13.33;;;;;;;8.22;86.66;102046.84;5282003;28;20060;-75
2022/03/14 06:41:18;;;;;;;16.27;13.33;;;;;;;8.20;86.92;102055.50;5281964;28;20048;-76
2022/03/14 06:43:52;;;;;;;;;;;;;;;8.26;86.88;102057.31;5282273;28;20070;-75
2022/03/14 06:46:24;;;;;;;19.55;14.43;;;;;;;8.23;87.16;102055.53;5281280;28;19912;-75
2022/03/14 06:48:55;;;;;;;20.80;14.97;;;;;;;8.21;87.18;102060.72;5283793;28;20533;-76
2022/03/14 06:51:27;;;;;;;22.10;14.93;;;;;;;8.19;87.19;102062.41;5285730;28;20051;-75
2022/03/14 06:53:58;;;;;;;20.90;15.40;;;;;;;8.20;86.96;102066.75;5285717;28;20038;-74
2022/03/14 06:56:29;;;;;;;16.43;13.10;;;;;;;8.22;86.76;102067.63;5284068;28;20024;-74
2022/03/14 06:59:01;;;;;;;18.70;15.20;;;;;;;8.21;86.74;102071.09;5285496;28;20058;-75
2022/03/14 07:01:32;;;;;;;21.30;14.13;;;;;;;8.27;86.60;102077.25;5284834;28;20563;-77
2022/03/14 07:04:04;;;;;;;17.43;13.80;;;;;;;8.30;86.39;102075.56;5285639;28;20060;-76
2022/03/14 07:06:35;;;;;;;22.40;14.00;;;;;;;8.38;85.73;102079.16;5285800;28;20123;-75
2022/03/14 07:09:09;;;;;;;18.73;12.77;;;;;;;8.46;85.58;102091.47;5285357;28;20110;-73
2022/03/14 07:11:40;;;;;;;18.40;12.77;;;;;;;8.49;84.96;102082.00;5285246;28;20039;-76
2022/03/14 07:14:11;;;;;;;16.63;13.17;;;;;;;8.49;84.96;102088.91;5285399;28;20021;-77
2022/03/14 07:16:44;;;;;;;18.70;12.83;;;;;;;8.52;84.95;102089.84;5284913;28;20023;-76
2022/03/14 07:19:15;;;;;;;17.00;13.00;;;;;;;8.59;84.19;102096.00;5285215;28;20038;-74
2022/03/14 07:21:47;;;;;;;15.97;12.77;;;;;;;8.57;83.69;102093.38;5284700;28;20435;-77
2022/03/14 07:24:18;;;;;;;19.50;12.97;;;;;;;8.62;83.93;102092.59;5285147;28;20040;-75
2022/03/14 07:26:49;;;;;;;20.30;12.47;;;;;;;8.64;83.70;102099.56;5284870;28;20017;-75
2022/03/14 07:29:21;;;;;;;16.37;12.33;;;;;;;8.67;83.47;102107.41;5284783;28;20077;-76
2022/03/14 07:31:52;;;;;;;19.43;13.40;;;;;;;8.68;83.03;102105.69;5284694;28;20050;-77
2022/03/14 07:34:24;;;;;;;21.47;12.70;;;;;;;8.70;82.85;102107.47;5283543;28;20055;-77
2022/03/14 07:36:55;;;;;;;19.40;12.10;;;;;;;8.76;82.77;102107.56;5284841;28;20169;-76
2022/03/14 07:39:26;;;;;;;18.67;12.33;;;;;;;8.79;82.51;102108.44;5285035;28;20020;-75
2022/03/14 07:41:58;;;;;;;15.60;12.27;;;;;;;8.80;82.32;102111.06;5284957;28;20020;-75
2022/03/14 07:44:29;;;;;;;16.63;13.07;;;;;;;8.88;82.28;102106.88;5286381;28;20013;-76
2022/03/14 07:47:03;;;;;;;23.00;14.77;;;;;;;8.97;81.69;102115.66;5284714;28;20082;-76
2022/03/14 07:49:34;;;;;;;19.40;11.75;;;;;;;9.04;81.36;102113.19;5284229;28;20034;-76
2022/03/14 07:52:07;;;;;;;18.93;13.80;;;;;;;9.00;81.17;102121.81;5284580;28;20040;-76
2022/03/14 07:54:38;;;;;;;18.95;12.98;;;;;;;9.07;81.09;102127.97;5284557;28;20070;-76
2022/03/14 07:57:09;;;;;;;15.90;13.10;;;;;;;9.06;81.25;102126.22;5284619;28;20058;-76
2022/03/14 07:59:41;;;;;;;18.13;12.63;;;;;;;9.13;81.01;102133.28;5284030;28;20020;-76
2022/03/14 08:02:13;;;;;;;17.80;13.20;;;;;;;9.11;80.79;102146.25;5284371;28;20035;-76
2022/03/14 08:04:44;;;;;;;17.02;13.40;;;;;;;9.07;80.74;102140.97;5284216;28;20020;-75
2022/03/14 08:07:17;;;;;;;17.43;13.03;;;;;;;9.09;81.04;102144.47;5284343;28;20088;-76
2022/03/14 08:09:48;;;;;;;24.98;13.35;;;;;;;9.08;80.92;102151.41;5283918;28;20060;-74
2022/03/14 08:12:21;;;;;;;17.23;12.27;;;;;;;9.10;80.60;102156.63;5284066;28;20055;-75
2022/03/14 08:14:52;;;;;;;21.40;14.60;;;;;;;9.09;80.73;102160.06;5284087;28;20027;-75
2022/03/14 08:17:24;;;;;;;23.87;15.43;;;;;;;9.07;80.65;102160.06;5284081;28;20025;-76
2022/03/14 08:19:55;;;;;;;17.57;14.00;;;;;;;8.99;80.94;102161.66;5283972;28;20558;-75
2022/03/14 08:22:27;;;;;;;18.10;13.67;;;;;;;9.02;81.14;102169.50;5283855;28;20044;-76
2022/03/14 08:24:58;;;;;;;27.20;15.33;;;;;;;9.04;80.72;102179.94;5283924;28;20016;-75
2022/03/14 08:27:29;;;;;;;16.53;13.63;;;;;;;9.07;80.48;102178.25;5283831;28;20047;-75
2022/03/14 08:30:01;;;;;;;16.40;12.20;;;;;;;9.23;80.34;102173.31;5283782;28;20036;-75
2022/03/14 08:32:34;;;;;;;20.57;13.07;;;;;;;9.27;79.83;102181.19;5282564;28;20064;-77
2022/03/14 08:35:08;;;;;;;22.27;14.00;;;;;;;9.35;79.94;102183.00;5283818;28;20376;-77
2022/03/14 08:37:42;;;;;;;17.73;12.07;;;;;;;9.38;79.41;102191.72;5283754;28;20115;-75
2022/03/14 08:40:16;;;;;;;19.60;12.15;;;;;;;9.25;79.29;102193.28;5283794;28;20480;-77
2022/03/14 08:42:49;;;;;;;21.52;12.88;;;;;;;9.22;79.68;102193.22;5282318;28;20044;-75
2022/03/14 08:45:23;;;;;;;20.13;12.23;;;;;;;9.38;79.50;102196.94;5283890;28;20021;-77
2022/03/14 08:47:55;;;;;;;15.70;11.05;;;;;;;9.47;78.66;102207.50;5283850;28;20035;-76
2022/03/14 08:50:26;;;;;;;19.20;12.10;;;;;;;9.59;77.97;102212.00;5283090;28;20028;-76
2022/03/14 08:52:57;;;;;;;19.63;12.70;;;;;;;9.66;78.15;102213.84;5282020;28;20036;-76
2022/03/14 08:55:29;;;;;;;21.10;10.63;;;;;;;9.75;76.97;102218.28;5282082;28;20040;-75
2022/03/14 08:58:01;;;;;;;16.40;10.83;;;;;;;9.66;77.13;102228.59;5283555;28;20032;-74
2022/03/14 09:00:32;;;;;;;21.08;10.02;;;;;;;9.77;76.50;102226.13;5283357;28;20025;-75
2022/03/14 09:03:04;;;;;;;13.73;9.93;;;;;;;9.77;76.42;102228.72;5283269;28;20047;-76
2022/03/14 09:05:35;;;;;;;19.33;10.30;;;;;;;9.93;76.53;102246.31;5282727;28;20021;-76
2022/03/14 09:08:07;;;;;;;16.77;10.00;;;;;;;10.02;75.45;102232.53;5283171;28;20107;-76
2022/03/14 09:10:39;;;;;;;15.43;10.07;;;;;;;10.25;74.58;102239.75;5283090;28;20117;-74
2022/03/14 09:13:10;;;;;;;13.98;8.95;;;;;;;10.35;73.82;102249.47;5282352;28;20028;-76
2022/03/14 09:15:42;;;;;;;13.63;9.03;;;;;;;10.64;73.19;102249.81;5282735;28;20498;-76
2022/03/14 09:18:14;;;;;;;15.43;10.03;;;;;;;10.88;72.32;102257.00;5282920;28;20016;-76
2022/03/14 09:20:47;;;;;;;14.80;8.40;;;;;;;10.76;72.17;102259.47;5282452;28;20021;-76
2022/03/14 09:23:20;;;;;;;16.58;10.10;;;;;;;11.13;71.65;102260.69;5282551;28;20044;-76
2022/03/14 09:25:52;;;;;;;15.93;8.88;;;;;;;11.21;70.35;102263.38;5282750;28;20032;-77
2022/03/14 09:28:23;;;;;;;12.43;9.00;;;;;;;11.22;69.69;102264.22;5282764;28;20361;-76
2022/03/14 09:30:55;;;;;;;15.83;8.80;;;;;;;11.10;70.41;102255.44;5283004;28;20066;-76
2022/03/14 09:33:26;;;;;;;18.17;9.40;;;;;;;11.03;69.46;102265.81;5282960;28;20029;-77
2022/03/14 09:35:58;;;;;;;13.80;8.00;;;;;;;11.34;68.33;102272.19;5282381;28;20036;-77
2022/03/14 09:38:30;;;;;;;13.85;7.93;;;;;;;11.43;67.83;102280.09;5282608;28;20028;-76
2022/03/14 09:41:04;;;;;;;13.95;7.60;;;;;;;11.32;68.23;102280.00;5282575;28;20027;-76
2022/03/14 09:43:39;;;;;;;17.02;7.70;;;;;;;11.22;67.74;102290.34;5282546;28;20050;-76
2022/03/14 09:46:12;;;;;;;11.82;6.75;;;;;;;11.01;67.89;102291.91;5282610;28;20348;-77
2022/03/14 09:48:51;;;;;;;14.82;7.20;;;;;;;10.93;68.65;102309.19;5282486;28;20021;-76
2022/03/14 09:51:23;;;;;;;13.98;8.18;;;;;;;10.89;68.64;102304.81;5282281;28;20162;-77
2022/03/14 09:53:55;;;;;;;12.57;8.20;;;;;;;11.23;67.70;102308.63;5283319;28;20099;-75
2022/03/14 09:56:27;;;;;;;13.85;6.95;;;;;;;11.75;66.13;102318.63;5283493;28;20029;-76
2022/03/14 09:59:00;;;;;;;10.57;6.70;;;;;;;11.75;66.10;102329.09;5282860;28;20048;-77
2022/03/14 10:01:31;;;;;;;14.18;7.28;;;;;;;11.47;66.78;102325.38;5282440;28;20035;-76
2022/03/14 10:04:03;;;;;;;12.50;7.10;;;;;;;11.49;67.14;102334.09;5282348;28;20460;-77
2022/03/14 10:06:36;;;;;;;11.83;7.00;;;;;;;11.50;66.53;102330.63;5282546;28;20017;-76
2022/03/14 10:09:07;;;;;;;12.05;7.20;;;;;;;11.34;66.38;102336.59;5282290;28;20029;-76
2022/03/14 10:11:39;;;;;;;12.57;8.03;;;;;;;11.10;68.13;102340.69;5283045;28;20025;-78
2022/03/14 10:14:19;;;;;;;16.23;8.13;;;;;;;11.00;68.28;102331.03;5282638;28;20013;-77
2022/03/14 10:16:56;;;;;;;16.25;7.95;;;;;;;11.20;68.45;102337.31;5282092;28;20114;-78
2022/03/14 10:19:34;;;;;;;8.48;6.07;;;;;;;11.82;66.32;102341.31;5282479;28;20491;-78
2022/03/14 10:22:19;;;;;;;13.20;6.65;;;;;;;12.17;64.66;102342.41;5282059;28;20047;-77
2022/03/14 10:25:03;;;;;;;11.52;7.78;;;;;;;11.98;64.00;102352.78;5286319;28;20418;-78
2022/03/14 10:27:35;;;;;;;10.40;6.35;;;;;;;11.63;63.96;102349.88;5286705;28;20021;-75
2022/03/14 10:30:20;;;;;;;10.83;6.33;;;;;;;11.58;64.84;102370.72;5286367;28;20055;-77
2022/03/14 10:33:01;;;;;;;11.15;6.45;;;;;;;11.63;64.41;102363.81;5286374;28;20020;-76
2022/03/14 10:35:37;;;;;;;9.43;7.60;;;;;;;11.52;64.77;102361.97;5286164;28;20027;-75
2022/03/14 10:38:11;;;;;;;11.82;7.53;;;;;;;11.46;65.01;102365.38;5285927;28;20021;-76
2022/03/14 10:40:44;;;;;;;10.63;6.68;;;;;;;11.81;64.16;102368.28;5286154;28;20369;-76
2022/03/14 10:43:32;;;;;;;10.57;6.72;;;;;;;12.11;63.56;102387.72;5286292;28;20044;-76
2022/03/14 10:46:06;;;;;;;11.35;7.25;;;;;;;11.72;63.54;102376.06;5285785;28;20021;-77
2022/03/14 10:48:41;;;;;;;12.52;7.68;;;;;;;12.05;63.36;102390.28;5285951;28;20132;-74
2022/03/14 10:51:14;;;;;;;13.45;6.80;;;;;;;11.89;63.32;102386.63;5284537;28;20027;-75
2022/03/14 10:53:47;;;;;;;12.82;7.28;;;;;;;11.77;63.95;102384.81;5285558;28;20135;-76
2022/03/14 10:56:27;;;;;;;11.70;6.82;;;;;;;11.93;63.86;102393.69;5285806;28;20027;-77
2022/03/14 10:59:07;;;;;;;12.48;7.20;;;;;;;11.58;64.06;102401.22;5285481;28;20024;-77
2022/03/14 11:01:58;;;;;;;11.15;5.32;;;;;;;11.66;63.89;102396.91;5285782;28;20373;-76
2022/03/14 11:04:39;;;;;;;11.85;6.07;;;;;;;11.66;64.19;102396.91;5285883;28;20025;-75
2022/03/14 11:07:12;;;;;;;10.73;5.47;;;;;;;12.46;63.01;102394.00;5285620;28;20030;-75
2022/03/14 11:09:46;;;;;;;12.45;6.28;;;;;;;13.14;58.18;102400.38;5285374;28;20029;-77
2022/03/14 11:12:23;;;;;;;8.40;4.63;;;;;;;14.26;55.74;102396.03;5285385;28;20139;-77
2022/03/14 11:14:59;;;;;;;11.65;5.65;;;;;;;15.42;53.15;102383.25;5285695;28;20074;-76
2022/03/14 11:17:32;;;;;;;9.45;4.90;;;;;;;16.14;48.79;102408.06;5285536;28;20433;-77
2022/03/14 11:20:04;;;;;;;9.18;3.92;;;;;;;15.71;48.78;102400.53;5285866;28;20063;-75
2022/03/14 11:22:38;;;;;;;12.68;4.68;;;;;;;16.85;46.56;102392.34;5285683;28;20067;-77
2022/03/14 11:25:10;;;;;;;7.43;3.85;;;;;;;17.65;44.12;102388.50;5285249;28;20021;-76
2022/03/14 11:27:42;;;;;;;6.00;3.77;;;;;;;18.16;42.11;102382.38;5285252;28;20067;-76
2022/03/14 11:30:14;;;;;;;7.03;3.35;;;;;;;19.06;40.18;102391.97;5285356;28;20029;-76
2022/03/14 11:32:46;;;;;;;9.07;4.28;;;;;;;18.45;39.95;102402.06;5285261;28;20035;-76
2022/03/14 11:35:18;;;;;;;9.10;3.83;;;;;;;19.02;39.91;102400.88;5284314;28;20032;-78
2022/03/14 11:37:51;;;;;;;7.22;3.33;;;;;;;19.47;38.46;102398.06;5285198;28;20055;-79
2022/03/14 11:40:23;;;;;;;5.30;2.55;;;;;;;19.47;36.77;102410.41;5284714;28;20024;-78
2022/03/14 11:42:55;;;;;;;5.95;3.20;;;;;;;18.60;38.94;102398.22;5285148;28;20016;-78
2022/03/14 11:45:27;;;;;;;7.00;3.38;;;;;;;18.72;38.47;102400.63;5284972;28;20021;-78
2022/03/14 11:48:00;;;;;;;8.50;3.85;;;;;;;18.74;38.37;102417.31;5285097;28;20494;-76